createdAt,value
2018-08-22T00:01:09.885Z,19.90
2018-08-22T00:03:39.994Z,19.80
2018-08-22T00:06:10.326Z,19.80
2018-08-22T00:08:43.959Z,19.80
2018-08-22T00:11:14.687Z,19.80
2018-08-22T00:13:45.100Z,19.80
2018-08-22T00:16:15.352Z,19.80
2018-08-22T00:18:45.429Z,19.80
2018-08-22T00:21:15.739Z,19.80
2018-08-22T00:23:45.965Z,19.80
2018-08-22T00:26:16.713Z,19.70
2018-08-22T00:28:46.776Z,19.70
2018-08-22T00:31:17.060Z,19.70
2018-08-22T00:33:47.389Z,19.70
2018-08-22T00:36:17.491Z,19.70
2018-08-22T00:38:47.672Z,19.70
2018-08-22T00:41:17.817Z,19.70
2018-08-22T00:43:48.057Z,19.60
2018-08-22T00:46:18.389Z,19.70
2018-08-22T00:48:48.584Z,19.60
2018-08-22T00:51:18.810Z,19.60
2018-08-22T00:53:49.152Z,19.60
2018-08-22T00:56:19.502Z,19.60
2018-08-22T00:58:49.796Z,19.50
2018-08-22T01:01:20.010Z,19.50
2018-08-22T01:03:50.206Z,19.50
2018-08-22T01:06:20.233Z,19.50
2018-08-22T01:08:50.381Z,19.50
2018-08-22T01:11:20.616Z,19.50
2018-08-22T01:13:50.723Z,19.50
2018-08-22T01:16:20.884Z,19.50
2018-08-22T01:18:51.156Z,19.50
2018-08-22T01:21:23.389Z,19.40
2018-08-22T01:23:53.529Z,19.40
2018-08-22T01:26:23.657Z,19.40
2018-08-22T01:28:53.900Z,19.40
2018-08-22T01:31:24.097Z,19.40
2018-08-22T01:33:54.343Z,19.40
2018-08-22T01:36:24.451Z,19.40
2018-08-22T01:38:54.658Z,19.30
2018-08-22T01:41:24.760Z,19.30
2018-08-22T01:43:55.025Z,19.30
2018-08-22T01:46:25.357Z,19.30
2018-08-22T01:48:55.669Z,19.30
2018-08-22T01:51:25.789Z,19.30
2018-08-22T01:53:55.969Z,19.20
2018-08-22T01:56:26.097Z,19.20
2018-08-22T01:58:56.288Z,19.20
2018-08-22T02:01:26.330Z,19.20
2018-08-22T02:03:56.473Z,19.20
2018-08-22T02:06:26.565Z,19.20
2018-08-22T02:08:56.861Z,19.10
2018-08-22T02:11:27.037Z,19.10
2018-08-22T02:13:57.129Z,19.10
2018-08-22T02:16:27.279Z,19.10
2018-08-22T02:18:57.453Z,19.10
2018-08-22T02:21:27.578Z,19.00
2018-08-22T02:23:57.838Z,19.00
2018-08-22T02:26:28.219Z,19.00
2018-08-22T02:28:58.263Z,19.00
2018-08-22T02:31:28.236Z,19.00
2018-08-22T02:33:58.378Z,19.00
2018-08-22T02:36:28.650Z,18.90
2018-08-22T02:38:58.969Z,18.90
2018-08-22T02:41:29.078Z,18.90
2018-08-22T02:43:59.301Z,18.90
2018-08-22T02:46:29.522Z,18.90
2018-08-22T02:48:59.856Z,18.90
2018-08-22T02:51:30.165Z,18.90
2018-08-22T02:54:00.391Z,18.90
2018-08-22T02:56:32.260Z,18.80
2018-08-22T02:59:04.748Z,18.80
2018-08-22T03:01:35.067Z,18.80
2018-08-22T03:04:05.437Z,18.80
2018-08-22T03:06:35.450Z,18.80
2018-08-22T03:09:07.714Z,18.80
2018-08-22T03:11:37.733Z,18.80
2018-08-22T03:14:08.576Z,18.70
2018-08-22T03:16:38.587Z,18.70
2018-08-22T03:19:08.866Z,18.70
2018-08-22T03:21:39.190Z,18.70
2018-08-22T03:24:09.377Z,18.70
2018-08-22T03:26:39.487Z,18.70
2018-08-22T03:29:09.888Z,18.60
2018-08-22T03:31:39.931Z,18.60
2018-08-22T03:34:10.073Z,18.60
2018-08-22T03:36:40.188Z,18.60
2018-08-22T03:39:10.366Z,18.60
2018-08-22T03:41:40.482Z,18.60
2018-08-22T03:44:10.661Z,18.60
2018-08-22T03:46:40.854Z,18.50
2018-08-22T03:49:10.985Z,18.50
2018-08-22T03:51:41.276Z,18.50
2018-08-22T03:54:11.565Z,18.50
2018-08-22T03:56:41.736Z,18.50
2018-08-22T03:59:11.889Z,18.50
2018-08-22T04:01:42.010Z,18.40
2018-08-22T04:04:12.235Z,18.40
2018-08-22T04:06:42.382Z,18.40
2018-08-22T04:09:12.545Z,18.40
2018-08-22T04:11:42.643Z,18.40
2018-08-22T04:14:12.906Z,18.40
2018-08-22T04:16:43.156Z,18.30
2018-08-22T04:19:13.372Z,18.20
2018-08-22T04:21:43.551Z,18.20
2018-08-22T04:24:13.667Z,18.20
2018-08-22T04:26:43.916Z,18.20
2018-08-22T04:29:14.036Z,18.20
2018-08-22T04:31:44.239Z,18.20
2018-08-22T04:34:14.342Z,18.20
2018-08-22T04:36:44.607Z,18.20
2018-08-22T04:39:14.931Z,18.20
2018-08-22T04:41:45.098Z,18.20
2018-08-22T04:44:15.238Z,18.20
2018-08-22T04:46:45.500Z,18.20
2018-08-22T04:49:15.828Z,18.20
2018-08-22T04:51:46.136Z,18.10
2018-08-22T04:54:16.475Z,18.10
2018-08-22T04:56:46.634Z,18.10
2018-08-22T04:59:16.852Z,18.10
2018-08-22T05:01:47.003Z,18.10
2018-08-22T05:04:17.339Z,18.10
2018-08-22T05:06:47.533Z,18.10
2018-08-22T05:09:17.792Z,18.10
2018-08-22T05:11:48.100Z,18.10
2018-08-22T05:14:18.427Z,18.10
2018-08-22T05:16:48.613Z,18.00
2018-08-22T05:19:18.742Z,18.00
2018-08-22T05:21:49.004Z,18.00
2018-08-22T05:24:19.089Z,18.00
2018-08-22T05:26:49.323Z,18.00
2018-08-22T05:29:19.555Z,18.00
2018-08-22T05:31:49.878Z,18.00
2018-08-22T05:34:20.202Z,18.00
2018-08-22T05:36:50.400Z,18.00
2018-08-22T05:39:20.726Z,18.00
2018-08-22T05:41:50.970Z,18.00
2018-08-22T05:44:21.281Z,18.00
2018-08-22T05:46:51.445Z,18.00
2018-08-22T05:49:21.747Z,17.90
2018-08-22T05:51:51.899Z,18.00
2018-08-22T05:54:22.166Z,18.00
2018-08-22T05:56:52.303Z,18.00
2018-08-22T05:59:22.628Z,18.00
2018-08-22T06:01:52.808Z,18.00
2018-08-22T06:04:22.940Z,18.00
2018-08-22T06:06:53.207Z,18.00
2018-08-22T06:09:23.531Z,18.00
2018-08-22T06:11:53.878Z,18.00
2018-08-22T06:14:24.162Z,18.00
2018-08-22T06:16:54.441Z,17.90
2018-08-22T06:19:24.772Z,18.00
2018-08-22T06:21:54.596Z,17.90
2018-08-22T06:24:24.873Z,18.00
2018-08-22T06:26:55.026Z,17.90
2018-08-22T06:29:25.173Z,18.00
2018-08-22T06:31:55.286Z,17.90
2018-08-22T06:34:25.397Z,18.00
2018-08-22T06:36:55.632Z,18.00
2018-08-22T06:39:25.758Z,18.00
2018-08-22T06:41:55.949Z,18.00
2018-08-22T06:44:26.088Z,18.00
2018-08-22T06:46:56.326Z,18.00
2018-08-22T06:49:26.657Z,18.00
2018-08-22T06:51:56.862Z,18.00
2018-08-22T06:54:26.959Z,18.10
2018-08-22T06:56:57.088Z,18.10
2018-08-22T06:59:27.410Z,18.10
2018-08-22T07:01:57.730Z,18.10
2018-08-22T07:04:27.671Z,18.20
2018-08-22T07:06:57.769Z,18.20
2018-08-22T07:09:27.998Z,18.20
2018-08-22T07:11:58.408Z,18.20
2018-08-22T07:14:28.657Z,18.30
2018-08-22T07:16:58.991Z,18.30
2018-08-22T07:19:29.422Z,18.30
2018-08-22T07:21:59.639Z,18.30
2018-08-22T07:24:29.791Z,18.40
2018-08-22T07:26:59.983Z,18.40
2018-08-22T07:29:30.074Z,18.40
2018-08-22T07:32:00.287Z,18.50
2018-08-22T07:34:30.713Z,18.50
2018-08-22T07:37:01.166Z,18.50
2018-08-22T07:39:31.307Z,18.60
2018-08-22T07:42:01.624Z,18.60
2018-08-22T07:44:31.795Z,18.60
2018-08-22T07:47:01.961Z,18.60
2018-08-22T07:49:32.064Z,18.70
2018-08-22T07:52:02.171Z,18.70
2018-08-22T07:54:37.302Z,18.70
2018-08-22T07:57:07.618Z,18.70
2018-08-22T07:59:37.639Z,18.80
2018-08-22T08:02:07.900Z,18.80
2018-08-22T08:04:38.040Z,18.90
2018-08-22T08:07:08.178Z,18.90
2018-08-22T08:09:38.461Z,18.90
2018-08-22T08:12:08.802Z,18.90
2018-08-22T08:14:38.905Z,19.00
2018-08-22T08:17:09.198Z,19.00
2018-08-22T08:19:39.219Z,19.10
2018-08-22T08:22:09.332Z,19.10
2018-08-22T08:24:39.594Z,19.10
2018-08-22T08:27:09.877Z,19.20
2018-08-22T08:29:40.219Z,19.30
2018-08-22T08:32:10.434Z,19.30
2018-08-22T08:34:40.536Z,19.40
2018-08-22T08:37:11.238Z,19.40
2018-08-22T08:39:41.503Z,19.40
2018-08-22T08:42:11.852Z,19.50
2018-08-22T08:44:42.162Z,19.50
2018-08-22T08:47:12.515Z,19.60
2018-08-22T08:49:42.621Z,19.70
2018-08-22T08:52:12.560Z,19.60
2018-08-22T08:54:42.848Z,19.70
2018-08-22T08:57:13.097Z,19.70
2018-08-22T08:59:43.158Z,19.70
2018-08-22T09:02:13.469Z,19.80
2018-08-22T09:04:43.834Z,19.80
2018-08-22T09:07:14.089Z,19.90
2018-08-22T09:09:44.411Z,19.90
2018-08-22T09:12:14.797Z,20.00
2018-08-22T09:14:44.950Z,20.00
2018-08-22T09:17:15.047Z,20.10
2018-08-22T09:19:45.289Z,20.10
2018-08-22T09:22:15.410Z,20.20
2018-08-22T09:24:45.712Z,20.20
2018-08-22T09:27:15.936Z,20.30
2018-08-22T09:29:46.027Z,20.30
2018-08-22T09:32:16.254Z,20.30
2018-08-22T09:34:46.613Z,20.40
2018-08-22T09:37:16.810Z,20.40
2018-08-22T09:39:47.010Z,20.50
2018-08-22T09:42:17.052Z,20.60
2018-08-22T09:44:47.302Z,20.60
2018-08-22T09:47:17.629Z,20.60
2018-08-22T09:49:47.847Z,20.70
2018-08-22T09:52:17.982Z,20.70
2018-08-22T09:54:57.952Z,20.70
2018-08-22T09:57:28.688Z,20.80
2018-08-22T09:59:58.942Z,21.10
2018-08-22T10:02:29.271Z,21.60
2018-08-22T10:05:00.495Z,22.00
2018-08-22T10:07:30.979Z,22.20
2018-08-22T10:10:07.305Z,22.40
2018-08-22T10:12:43.306Z,22.00
2018-08-22T10:15:13.766Z,21.80
2018-08-22T10:17:44.047Z,21.60
2018-08-22T10:20:14.166Z,21.60
2018-08-22T10:22:44.339Z,21.70
2018-08-22T10:25:14.607Z,21.70
2018-08-22T10:27:44.877Z,21.70
2018-08-22T10:30:15.118Z,21.80
2018-08-22T10:32:45.252Z,21.80
2018-08-22T10:35:15.377Z,21.70
2018-08-22T10:37:45.390Z,21.80
2018-08-22T10:40:15.593Z,21.80
2018-08-22T10:42:45.689Z,21.90
2018-08-22T10:45:15.825Z,21.90
2018-08-22T10:47:46.043Z,21.90
2018-08-22T10:50:16.315Z,22.00
2018-08-22T10:52:46.374Z,22.00
2018-08-22T10:55:16.634Z,22.00
2018-08-22T10:57:46.953Z,22.10
2018-08-22T11:00:17.255Z,22.00
2018-08-22T11:02:47.507Z,22.10
2018-08-22T11:05:17.598Z,22.10
2018-08-22T11:07:47.849Z,22.20
2018-08-22T11:10:18.042Z,22.20
2018-08-22T11:12:48.018Z,22.30
2018-08-22T11:15:18.053Z,22.30
2018-08-22T11:17:48.155Z,22.40
2018-08-22T11:20:18.461Z,22.40
2018-08-22T11:22:59.385Z,22.50
2018-08-22T11:25:40.550Z,22.50
2018-08-22T11:28:21.731Z,22.60
2018-08-22T11:31:02.696Z,22.60
2018-08-22T11:33:43.449Z,22.60
2018-08-22T11:36:11.960Z,22.70
2018-08-22T11:38:42.254Z,22.70
2018-08-22T11:41:12.442Z,22.70
2018-08-22T11:43:42.537Z,22.70
2018-08-22T11:46:12.722Z,22.80
2018-08-22T11:48:42.991Z,22.80
2018-08-22T11:51:13.419Z,22.90
2018-08-22T11:53:43.640Z,22.90
2018-08-22T11:56:13.945Z,23.00
2018-08-22T11:58:44.221Z,23.00
2018-08-22T12:01:14.490Z,23.00
2018-08-22T12:03:44.605Z,23.00
2018-08-22T12:06:14.753Z,23.00
2018-08-22T12:08:45.263Z,23.10
2018-08-22T12:11:15.395Z,23.10
2018-08-22T12:13:46.100Z,23.10
2018-08-22T12:16:17.181Z,23.20
2018-08-22T12:18:50.388Z,23.30
2018-08-22T12:21:31.005Z,23.20
2018-08-22T12:24:02.365Z,23.30
2018-08-22T12:26:32.509Z,23.30
2018-08-22T12:29:02.718Z,23.30
2018-08-22T12:31:33.017Z,23.40
2018-08-22T12:34:03.434Z,23.40
2018-08-22T12:36:33.731Z,23.40
2018-08-22T12:39:04.043Z,23.40
2018-08-22T12:41:34.766Z,23.50
2018-08-22T12:44:04.978Z,23.50
2018-08-22T12:46:37.602Z,23.50
2018-08-22T12:49:07.798Z,23.50
2018-08-22T12:51:37.912Z,23.50
2018-08-22T12:54:08.335Z,23.50
2018-08-22T12:56:38.548Z,23.50
2018-08-22T12:59:08.872Z,23.40
2018-08-22T13:01:38.953Z,23.40
2018-08-22T13:04:09.091Z,23.50
2018-08-22T13:06:39.410Z,23.60
2018-08-22T13:09:10.607Z,23.60
2018-08-22T13:11:41.039Z,23.60
2018-08-22T13:14:11.033Z,23.70
2018-08-22T13:16:41.220Z,23.70
2018-08-22T13:19:11.482Z,23.70
2018-08-22T13:21:41.602Z,23.70
2018-08-22T13:24:11.807Z,23.70
2018-08-22T13:26:42.081Z,23.80
2018-08-22T13:29:12.350Z,23.80
2018-08-22T13:31:42.483Z,23.80
2018-08-22T13:34:13.479Z,23.80
2018-08-22T13:36:43.618Z,23.80
2018-08-22T13:39:22.748Z,23.90
2018-08-22T13:41:52.870Z,23.90
2018-08-22T13:44:26.002Z,24.00
2018-08-22T13:46:58.409Z,24.00
2018-08-22T13:49:30.093Z,24.00
2018-08-22T13:52:02.569Z,24.00
2018-08-22T13:54:33.755Z,24.00
2018-08-22T13:57:30.439Z,24.00
2018-08-22T14:00:07.644Z,24.10
2018-08-22T14:02:46.684Z,24.10
2018-08-22T14:05:16.987Z,24.10
2018-08-22T14:07:52.357Z,24.10
2018-08-22T14:10:26.172Z,24.10
2018-08-22T14:12:56.503Z,24.10
2018-08-22T14:15:26.775Z,24.10
2018-08-22T14:18:09.677Z,24.10
2018-08-22T14:20:41.193Z,24.20
2018-08-22T14:23:14.864Z,24.20
2018-08-22T14:25:47.611Z,24.20
2018-08-22T14:28:21.360Z,24.20
2018-08-22T14:30:55.586Z,24.20
2018-08-22T14:33:26.116Z,24.20
2018-08-22T14:35:56.317Z,24.20
2018-08-22T14:38:26.586Z,24.20
2018-08-22T14:40:56.735Z,24.40
2018-08-22T14:43:26.863Z,24.80
2018-08-22T14:45:57.005Z,25.10
2018-08-22T14:48:27.279Z,25.40
2018-08-22T14:50:57.415Z,25.60
2018-08-22T14:53:28.973Z,25.60
2018-08-22T14:55:59.232Z,25.60
2018-08-22T14:58:29.469Z,25.70
2018-08-22T15:01:02.468Z,25.70
2018-08-22T15:03:32.810Z,25.70
2018-08-22T15:06:03.288Z,25.80
2018-08-22T15:08:33.568Z,25.80
2018-08-22T15:11:03.863Z,25.80
2018-08-22T15:13:34.228Z,25.80
2018-08-22T15:16:04.431Z,25.80
2018-08-22T15:18:34.673Z,25.80
2018-08-22T15:21:05.164Z,25.90
2018-08-22T15:23:35.246Z,25.90
2018-08-22T15:26:05.711Z,25.90
2018-08-22T15:28:35.941Z,26.00
2018-08-22T15:31:06.279Z,25.90
2018-08-22T15:33:36.770Z,25.90
2018-08-22T15:36:07.172Z,25.90
2018-08-22T15:38:37.797Z,25.90
2018-08-22T15:41:08.075Z,26.00
2018-08-22T15:43:38.450Z,26.00
2018-08-22T15:46:08.836Z,26.20
2018-08-22T15:48:39.110Z,26.10
2018-08-22T15:51:09.487Z,26.00
2018-08-22T15:53:40.863Z,26.00
2018-08-22T15:56:12.474Z,26.00
2018-08-22T15:58:42.901Z,26.00
2018-08-22T16:01:13.070Z,26.00
2018-08-22T16:03:43.196Z,26.00
2018-08-22T16:06:13.354Z,26.00
2018-08-22T16:08:43.975Z,26.00
2018-08-22T16:11:14.290Z,26.00
2018-08-22T16:13:44.478Z,26.00
2018-08-22T16:16:14.611Z,26.00
2018-08-22T16:18:45.437Z,25.90
2018-08-22T16:21:15.752Z,25.90
2018-08-22T16:23:46.116Z,25.90
2018-08-22T16:26:16.326Z,25.90
2018-08-22T16:28:58.768Z,25.80
2018-08-22T16:31:34.192Z,25.90
2018-08-22T16:34:04.343Z,25.80
2018-08-22T16:36:34.426Z,25.80
2018-08-22T16:39:05.206Z,25.80
2018-08-22T16:41:35.534Z,25.80
2018-08-22T16:44:05.692Z,25.80
2018-08-22T16:46:35.841Z,25.90
2018-08-22T16:49:06.166Z,25.90
2018-08-22T16:51:36.283Z,25.80
2018-08-22T16:54:09.777Z,25.90
2018-08-22T16:56:40.252Z,25.90
2018-08-22T16:59:11.622Z,25.90
2018-08-22T17:01:46.729Z,25.80
2018-08-22T17:04:17.067Z,25.80
2018-08-22T17:06:47.450Z,25.80
2018-08-22T17:09:17.763Z,25.80
2018-08-22T17:11:47.933Z,25.80
2018-08-22T17:14:18.338Z,25.80
2018-08-22T17:16:48.466Z,25.80
2018-08-22T17:19:18.638Z,25.80
2018-08-22T17:21:48.710Z,25.80
2018-08-22T17:24:18.908Z,25.80
2018-08-22T17:26:49.239Z,25.80
2018-08-22T17:29:19.966Z,25.80
2018-08-22T17:31:55.432Z,25.80
2018-08-22T17:34:25.749Z,25.80
2018-08-22T17:37:04.380Z,25.80
2018-08-22T17:39:34.589Z,25.70
2018-08-22T17:42:04.833Z,25.70
2018-08-22T17:44:35.017Z,25.70
2018-08-22T17:47:05.702Z,25.70
2018-08-22T17:49:35.994Z,25.70
2018-08-22T17:52:08.302Z,25.70
2018-08-22T17:54:38.489Z,25.70
2018-08-22T17:57:17.419Z,25.70
2018-08-22T17:59:47.521Z,25.70
2018-08-22T18:02:17.738Z,25.60
2018-08-22T18:04:54.792Z,25.60
2018-08-22T18:07:24.873Z,25.60
2018-08-22T18:09:54.957Z,25.60
2018-08-22T18:12:25.841Z,25.60
2018-08-22T18:14:58.788Z,25.60
2018-08-22T18:17:29.041Z,25.50
2018-08-22T18:19:59.445Z,25.50
2018-08-22T18:22:33.686Z,25.50
2018-08-22T18:25:04.169Z,25.50
2018-08-22T18:27:34.544Z,25.50
2018-08-22T18:30:05.055Z,25.40
2018-08-22T18:32:35.302Z,25.50
2018-08-22T18:35:09.594Z,25.40
2018-08-22T18:37:40.431Z,25.40
2018-08-22T18:40:20.290Z,25.40
2018-08-22T18:42:51.819Z,25.40
2018-08-22T18:45:22.561Z,25.30
2018-08-22T18:47:52.945Z,25.40
2018-08-22T18:50:23.240Z,25.30
2018-08-22T18:52:56.779Z,25.30
2018-08-22T18:55:29.431Z,25.30
2018-08-22T18:58:01.192Z,25.30
2018-08-22T19:00:34.355Z,25.30
2018-08-22T19:03:04.410Z,25.30
2018-08-22T19:05:36.331Z,25.20
2018-08-22T19:08:11.035Z,25.20
2018-08-22T19:10:42.596Z,25.20
2018-08-22T19:13:29.878Z,25.20
2018-08-22T19:16:01.309Z,25.20
2018-08-22T19:18:31.641Z,25.10
2018-08-22T19:21:03.404Z,25.10
2018-08-22T19:23:33.693Z,25.10
2018-08-22T19:26:04.811Z,25.10
2018-08-22T19:28:49.517Z,25.00
2018-08-22T19:31:19.697Z,25.10
2018-08-22T19:33:49.981Z,25.00
2018-08-22T19:36:20.109Z,25.00
2018-08-22T19:38:50.550Z,25.00
2018-08-22T19:41:27.524Z,25.00
2018-08-22T19:44:00.417Z,25.00
2018-08-22T19:46:30.728Z,25.00
2018-08-22T19:49:01.833Z,24.90
2018-08-22T19:51:32.079Z,24.90
2018-08-22T19:54:07.604Z,24.80
2018-08-22T19:56:37.841Z,24.80
2018-08-22T19:59:08.084Z,24.80
2018-08-22T20:01:38.612Z,24.80
2018-08-22T20:04:08.784Z,24.80
2018-08-22T20:06:39.060Z,24.80
2018-08-22T20:09:09.359Z,24.80
2018-08-22T20:11:39.482Z,24.80
2018-08-22T20:14:09.647Z,24.70
2018-08-22T20:16:39.767Z,24.70
2018-08-22T20:19:10.121Z,24.70
2018-08-22T20:21:41.972Z,24.70
2018-08-22T20:24:13.204Z,24.60
2018-08-22T20:26:50.896Z,24.60
2018-08-22T20:29:21.169Z,24.60
2018-08-22T20:31:51.250Z,24.60
2018-08-22T20:34:21.446Z,24.60
2018-08-22T20:36:51.621Z,24.50
2018-08-22T20:39:21.747Z,24.50
2018-08-22T20:41:56.216Z,24.50
2018-08-22T20:44:26.584Z,24.50
2018-08-22T20:46:56.928Z,24.40
2018-08-22T20:49:27.227Z,24.40
2018-08-22T20:51:57.552Z,24.40
2018-08-22T20:54:27.724Z,24.40
2018-08-22T20:57:02.443Z,24.40
2018-08-22T20:59:32.618Z,24.40
2018-08-22T21:02:06.215Z,24.40
2018-08-22T21:04:36.821Z,24.30
2018-08-22T21:07:07.061Z,24.30
2018-08-22T21:09:37.279Z,24.30
2018-08-22T21:12:07.299Z,24.30
2018-08-22T21:14:37.629Z,24.20
2018-08-22T21:17:07.801Z,24.30
2018-08-22T21:19:37.945Z,24.20
2018-08-22T21:22:19.286Z,24.20
2018-08-22T21:24:49.546Z,24.20
2018-08-22T21:27:19.866Z,24.20
2018-08-22T21:29:50.085Z,24.20
2018-08-22T21:32:20.347Z,24.20
2018-08-22T21:34:50.641Z,24.20
2018-08-22T21:37:25.841Z,24.10
2018-08-22T21:39:56.431Z,24.10
2018-08-22T21:42:34.190Z,24.10
2018-08-22T21:45:04.396Z,24.10
2018-08-22T21:47:34.466Z,24.00
2018-08-22T21:50:04.753Z,24.00
2018-08-22T21:53:05.855Z,24.00
2018-08-22T21:55:39.003Z,24.00
2018-08-22T21:58:10.027Z,24.00
2018-08-22T22:00:40.585Z,23.90
2018-08-22T22:03:11.452Z,23.90
2018-08-22T22:05:56.869Z,23.90
2018-08-22T22:08:27.017Z,23.90
2018-08-22T22:11:00.778Z,23.90
2018-08-22T22:13:31.121Z,23.90
2018-08-22T22:16:02.798Z,23.80
2018-08-22T22:18:34.032Z,23.80
2018-08-22T22:21:11.985Z,23.80
2018-08-22T22:23:44.980Z,23.70
2018-08-22T22:26:16.427Z,23.70
2018-08-22T22:28:46.686Z,23.70
2018-08-22T22:31:17.837Z,23.70
2018-08-22T22:34:03.496Z,23.60
2018-08-22T22:36:34.241Z,23.60
2018-08-22T22:39:04.769Z,23.60
2018-08-22T22:41:34.933Z,23.60
2018-08-22T22:44:05.189Z,23.60
2018-08-22T22:46:35.259Z,23.60
2018-08-22T22:49:05.626Z,23.50
2018-08-22T22:51:35.674Z,23.50
2018-08-22T22:54:06.100Z,23.50
2018-08-22T22:56:36.332Z,23.50
2018-08-22T22:59:06.414Z,23.50
2018-08-22T23:01:36.706Z,23.40
2018-08-22T23:04:07.004Z,23.40
2018-08-22T23:06:37.085Z,23.40
2018-08-22T23:09:07.786Z,23.40
2018-08-22T23:11:37.885Z,23.30
2018-08-22T23:14:08.112Z,23.30
2018-08-22T23:16:38.430Z,23.30
2018-08-22T23:19:08.766Z,23.30
2018-08-22T23:21:38.957Z,23.30
2018-08-22T23:24:18.482Z,23.30
2018-08-22T23:26:48.731Z,23.20
2018-08-22T23:29:18.886Z,23.20
2018-08-22T23:31:48.874Z,23.20
2018-08-22T23:34:18.969Z,23.20
2018-08-22T23:36:49.107Z,23.20
2018-08-22T23:39:19.282Z,23.20
2018-08-22T23:41:49.351Z,23.10
2018-08-22T23:44:19.475Z,23.10
2018-08-22T23:46:49.679Z,23.10
2018-08-22T23:49:20.019Z,23.10
2018-08-22T23:51:50.239Z,23.10
2018-08-22T23:54:20.347Z,23.00
2018-08-22T23:56:54.590Z,23.00
2018-08-22T23:59:24.467Z,23.00
